Aérodrome :
LOGIN :

S'inscrire | Disclaimer

   EN    FR    IT 

 










Légende :    VFR   VFR Marginal   IFR   IFR Intensif   IFR Très Intensif
Visi : 
Plafond : 
>= 8 km
>= 3000ft
5 à 8 km
1000 à 3000 ft
1500m à 5 km
500 à 1000 ft
800 à 1500m
200 à 500 ft
< 800m
< 200 ft
Symboles :   Orages  Brouillard  Fortes neiges  Fortes précipitations  Vent > 20 kt
SIGMETs :   Divers  Orages  Givrage  Turbulence  Onde Orograph.  Cendres Volcan.






- Altitude de l'aérodrome : 1234 ft
- Code IATA : LUX


ELLX - Luxembourg Findel

DERNIER METAR :
  • 140050Z AUTO 16008KT 8000 SCT003/// BKN004/// OVC006/// 04/03 Q1000 NOSIG

METARs EXPIRÉS :
  • 140020Z AUTO 17008KT 130V210 6000 SCT002/// OVC003/// 04/03 Q1000 NOSIG
  • 132350Z 17007KT 140V200 8000 SCT003 BKN005 04/03 Q1001 NOSIG
  • 132320Z 18009KT 140V200 5000 BR SCT002 BKN004 04/03 Q1001 NOSIG
  • 132250Z 18007KT 140V200 5000 BR SCT002 BKN004 04/04 Q1001 NOSIG
  • 132220Z 17009KT 130V220 6000 SCT002 BKN004 04/04 Q1002 NOSIG

TAF TAF ELLX
Valide du 14 à 00h jusqu'au 15 à 06h UTC


132300Z 1400/1506 16010KT 5000 BKN007
PROB40
TEMPO 1402/1408 0200 FG BKN001
TEMPO 1408/1412 2000 RA RASN SCT001 BKN003
BECMG 1416/1418 03010KT
TEMPO 1416/1506 3000 -RASN BKN003
ATIS : +352 4798 27300
Météo : +352 4798 27010 / 27050



MET'MAP, la Météo Aéronautique d'un coup d'oeil ! - Copyright ORBIFLY Décembre 2007 - Disclaimer

ORBIFLY MET'MAP TEAM :

Programmation & Développement : Alexandra Zaïnal
Conception & Développement : Baudouin d'Aumeries
Co-Programmation & Développement : Marc-Olivier Méhu
Soutien technique & logistique : Manuel Goepfert

Contact : metmap@orbifly.com




SOURCES & CREDITS :

   NOAA